Time;durP1;ratioP1;P1;durP2;ratioP2;P2;SDS_P1;SDS_P2;PMS_P1;PMS_P2;Temp;Humidity;BMP_temperature;BMP_pressure;BME280_temperature;BME280_humidity;BME280_pressure;Samples;Min_cycle;Max_cycle;Signal;HPM_P1;HPM_P2
2021/05/27 00:01:07;;;;;;;5.20;0.93;;;;;;;9.88;65.77;99686.81;4210617;33;34146;-91
2021/05/27 00:03:48;;;;;;;5.10;1.10;;;;;;;9.83;66.01;99691.91;4235852;33;35328;-95
2021/05/27 00:06:21;;;;;;;5.12;1.17;;;;;;;9.82;66.46;99689.41;4260212;33;33784;-89
2021/05/27 00:08:54;;;;;;;2.75;1.00;;;;;;;9.97;65.92;99686.72;4269122;33;33817;-95
2021/05/27 00:11:27;;;;;;;2.78;1.30;;;;;;;10.11;65.26;99685.06;4234284;33;33763;-89
2021/05/27 00:14:00;;;;;;;1.90;1.25;;;;;;;9.87;65.53;99682.44;4245534;33;33804;-95
2021/05/27 00:16:33;;;;;;;1.87;1.20;;;;;;;9.85;65.91;99683.63;4256009;33;34712;-89
2021/05/27 00:19:06;;;;;;;1.77;1.10;;;;;;;9.92;65.91;99687.28;4237863;33;33158;-89
2021/05/27 00:21:39;;;;;;;5.18;1.37;;;;;;;9.97;65.22;99684.88;4244447;33;34042;-94
2021/05/27 00:24:31;;;;;;;6.70;1.67;;;;;;;9.88;65.22;99686.81;4151353;33;35901;-94
2021/05/27 00:27:04;;;;;;;2.28;1.15;;;;;;;10.04;64.84;99696.63;4242804;33;34340;-92
2021/05/27 00:29:39;;;;;;;4.20;1.08;;;;;;;9.57;66.27;99691.50;4222332;33;34245;-90
2021/05/27 00:32:12;;;;;;;2.08;1.20;;;;;;;9.64;66.41;99701.41;4204870;34;34926;-95
2021/05/27 00:35:30;;;;;;;5.25;1.12;;;;;;;9.78;65.63;99690.81;4222683;33;34453;-92
2021/05/27 00:38:03;;;;;;;3.20;0.93;;;;;;;9.47;66.91;99695.28;4231087;33;33682;-89
2021/05/27 00:40:36;;;;;;;4.97;1.40;;;;;;;9.66;66.47;99698.50;4228928;33;33879;-94
2021/05/27 00:43:09;;;;;;;3.12;1.20;;;;;;;9.93;65.63;99688.13;4245076;33;34615;-90
2021/05/27 00:45:43;;;;;;;4.87;1.20;;;;;;;9.63;66.16;99699.69;4234183;33;34536;-95
2021/05/27 00:51:43;;;;;;;4.07;1.45;;;;;;;9.85;65.43;99694.44;4222919;33;34855;-90
2021/05/27 00:54:30;;;;;;;;;;;;;;;9.20;67.12;99693.97;4234280;33;34055;-95
2021/05/27 00:57:44;;;;;;;4.20;1.83;;;;;;;9.38;66.63;99687.44;4068506;33;35710;-94
2021/05/27 01:00:19;;;;;;;4.43;1.10;;;;;;;9.15;67.60;99688.31;4256036;33;34155;-90
2021/05/27 01:02:53;;;;;;;1.15;0.73;;;;;;;9.60;66.07;99700.06;4246775;33;34753;-89
2021/05/27 01:05:28;;;;;;;3.22;1.25;;;;;;;9.26;66.98;99692.44;4251949;33;34645;-90
2021/05/27 01:08:04;;;;;;;9.25;1.60;;;;;;;9.11;67.58;99686.97;4248811;33;33734;-94
2021/05/27 01:11:10;;;;;;;5.60;1.25;;;;;;;9.06;67.53;99692.06;4229746;33;35159;-94
2021/05/27 01:17:23;;;;;;;2.33;1.10;;;;;;;9.35;66.92;99691.34;4238922;33;35689;-93
2021/05/27 01:20:12;;;;;;;1.80;0.90;;;;;;;9.52;65.97;99692.88;4232660;33;34033;-90
2021/05/27 01:22:45;;;;;;;2.97;1.10;;;;;;;9.46;66.07;99687.38;4255141;33;33594;-89
2021/05/27 01:25:19;;;;;;;2.45;1.27;;;;;;;9.32;66.37;99692.53;4258652;33;33948;-89
2021/05/27 01:27:52;;;;;;;2.70;1.10;;;;;;;9.06;67.48;99692.06;4239634;33;34549;-90
2021/05/27 01:30:25;;;;;;;2.67;1.27;;;;;;;9.24;66.94;99689.91;4253254;33;34780;-89
2021/05/27 01:32:59;;;;;;;4.62;1.05;;;;;;;9.28;66.52;99680.44;4259059;33;33249;-93
2021/05/27 01:35:33;;;;;;;1.67;1.05;;;;;;;9.24;66.58;99687.22;4234245;33;33166;-88
2021/05/27 01:38:15;;;;;;;2.05;1.00;;;;;;;9.09;67.10;99692.53;4249912;33;33713;-89
2021/05/27 01:40:50;;;;;;;1.90;1.00;;;;;;;9.38;66.16;99682.88;4253564;33;34693;-93
2021/05/27 01:43:26;;;;;;;2.30;1.40;;;;;;;9.17;66.58;99687.06;4246056;33;33754;-94
2021/05/27 01:46:21;;;;;;;2.75;1.12;;;;;;;9.16;66.25;99681.87;4216183;33;35315;-94
2021/05/27 01:48:55;;;;;;;4.28;1.10;;;;;;;8.79;68.09;99683.47;4252796;33;35347;-93
2021/05/27 01:51:28;;;;;;;2.45;0.85;;;;;;;8.95;67.59;99677.97;4245163;33;33992;-94
2021/05/27 01:54:03;;;;;;;4.93;1.00;;;;;;;9.26;66.37;99681.63;4255749;33;33695;-89
2021/05/27 01:56:37;;;;;;;2.85;1.17;;;;;;;9.16;66.59;99673.78;4224528;33;32807;-89
2021/05/27 01:59:12;;;;;;;6.00;1.00;;;;;;;9.17;66.66;99678.16;4235298;33;34671;-93
2021/05/27 02:01:56;;;;;;;2.35;0.88;;;;;;;9.18;66.32;99674.47;4251538;33;34123;-96
2021/05/27 02:04:30;;;;;;;3.08;1.20;;;;;;;9.36;65.50;99671.44;4216112;33;33603;-95
2021/05/27 02:07:11;;;;;;;3.80;1.00;;;;;;;9.17;65.84;99667.38;4258934;33;33192;-94
2021/05/27 02:09:45;;;;;;;2.62;0.93;;;;;;;9.18;65.85;99669.88;4235947;33;33632;-88
2021/05/27 02:12:18;;;;;;;4.43;0.98;;;;;;;9.00;66.39;99672.87;4256105;33;34698;-89
2021/05/27 02:14:52;;;;;;;2.67;0.90;;;;;;;9.19;65.89;99670.72;4234319;33;33549;-89
2021/05/27 02:17:25;;;;;;;2.15;1.00;;;;;;;9.17;65.71;99670.06;4245848;33;33017;-91
2021/05/27 02:19:59;;;;;;;1.10;0.85;;;;;;;9.19;66.02;99659.94;4233299;33;34253;-92
2021/05/27 02:22:33;;;;;;;2.83;1.00;;;;;;;9.40;64.87;99671.91;4234593;33;33994;-95
2021/05/27 02:25:21;;;;;;;7.72;1.10;;;;;;;9.26;65.16;99666.28;4221791;33;36002;-89
2021/05/27 02:27:55;;;;;;;3.25;1.10;;;;;;;8.96;66.29;99668.84;4246062;33;33222;-95
2021/05/27 02:30:58;;;;;;;4.45;1.20;;;;;;;8.91;66.79;99668.56;3625974;33;35316;-93
2021/05/27 02:33:52;;;;;;;8.30;2.15;;;;;;;9.06;66.18;99671.34;3807263;28;36145;-93
2021/05/27 02:36:39;;;;;;;5.10;1.43;;;;;;;9.07;65.93;99669.47;4250708;33;35191;-94
2021/05/27 02:39:13;;;;;;;0.98;0.77;;;;;;;8.63;67.82;99674.44;4247604;33;32154;-93
2021/05/27 02:41:47;;;;;;;2.58;1.00;;;;;;;8.69;67.60;99680.16;4259935;33;33487;-94
2021/05/27 02:44:22;;;;;;;2.80;1.10;;;;;;;8.59;67.72;99672.28;4252037;33;34595;-93
2021/05/27 02:47:11;;;;;;;6.35;1.27;;;;;;;9.06;66.17;99667.81;4219853;33;35618;-90
2021/05/27 02:49:45;;;;;;;4.05;1.20;;;;;;;8.85;66.91;99669.28;4231118;33;33003;-94
2021/05/27 02:52:18;;;;;;;3.67;1.73;;;;;;;9.22;65.57;99666.81;4231712;33;33471;-95
2021/05/27 02:55:04;;;;;;;4.82;1.30;;;;;;;9.17;65.57;99668.19;4226789;33;34655;-93
2021/05/27 02:57:38;;;;;;;2.55;1.00;;;;;;;8.66;67.00;99682.16;4242963;33;35888;-95
2021/05/27 03:00:23;;;;;;;3.08;1.20;;;;;;;8.07;69.78;99689.81;4217961;33;33966;-94
2021/05/27 03:03:35;;;;;;;3.53;1.10;;;;;;;8.45;68.93;99679.25;4177865;28;35444;-95
2021/05/27 03:06:20;;;;;;;2.50;1.23;;;;;;;8.26;69.92;99669.69;4212260;33;34989;-90
2021/05/27 03:08:54;;;;;;;3.08;1.02;;;;;;;8.76;68.37;99665.78;4245601;33;33617;-89
2021/05/27 03:11:27;;;;;;;4.65;1.30;;;;;;;8.97;67.49;99658.94;4245517;33;32924;-90
2021/05/27 03:14:00;;;;;;;2.70;1.52;;;;;;;8.95;67.86;99667.19;4227439;33;33877;-94
2021/05/27 03:19:57;;;;;;;6.80;0.98;;;;;;;9.05;67.61;99663.44;4230258;33;34441;-90
2021/05/27 03:22:32;;;;;;;1.40;0.80;;;;;;;9.07;67.18;99659.53;4228090;33;33246;-90
2021/05/27 03:25:09;;;;;;;1.92;1.27;;;;;;;9.14;66.52;99662.34;4222546;33;34191;-94
2021/05/27 03:27:42;;;;;;;3.40;1.30;;;;;;;8.99;67.53;99663.09;4245163;33;34176;-93
2021/05/27 03:30:19;;;;;;;5.32;0.95;;;;;;;8.99;67.61;99662.28;4202976;33;34099;-89
2021/05/27 03:32:52;;;;;;;2.92;1.00;;;;;;;8.82;68.44;99669.62;4241614;33;34132;-90
2021/05/27 03:35:25;;;;;;;4.93;1.42;;;;;;;9.15;67.42;99664.03;4230547;33;34923;-90
2021/05/27 03:37:59;;;;;;;1.55;0.90;;;;;;;9.18;67.50;99664.50;4231336;33;33818;-91
2021/05/27 03:40:42;;;;;;;1.20;0.90;;;;;;;9.43;66.64;99671.53;4224407;33;35067;-95
2021/05/27 03:43:30;;;;;;;3.53;1.00;;;;;;;9.29;67.10;99674.00;4234550;33;33400;-95
2021/05/27 03:46:03;;;;;;;2.72;1.00;;;;;;;9.11;68.19;99668.09;4232969;33;34431;-94
2021/05/27 03:49:01;;;;;;;7.93;1.30;;;;;;;9.23;68.24;99672.03;4241487;33;34184;-96
2021/05/27 03:51:49;;;;;;;2.15;0.95;;;;;;;9.33;68.13;99669.94;4217395;33;34411;-90
2021/05/27 03:54:22;;;;;;;4.10;1.12;;;;;;;9.58;67.41;99680.53;4230244;33;33228;-89
2021/05/27 03:56:55;;;;;;;5.10;1.77;;;;;;;9.78;67.07;99680.84;4229258;33;33641;-90
2021/05/27 04:02:21;;;;;;;2.50;1.12;;;;;;;10.15;66.10;99679.13;4225405;33;35479;-90
2021/05/27 04:07:47;;;;;;;4.55;1.08;;;;;;;10.09;67.60;99679.88;4233011;33;33457;-90
2021/05/27 04:10:20;;;;;;;2.33;1.23;;;;;;;10.03;68.19;99672.47;4229486;33;35866;-94
2021/05/27 04:12:53;;;;;;;2.85;0.93;;;;;;;10.50;66.47;99660.47;4206387;33;34015;-94
2021/05/27 04:15:39;;;;;;;3.00;0.98;;;;;;;10.62;65.71;99663.53;4248017;33;35039;-94
2021/05/27 04:18:15;;;;;;;4.50;1.10;;;;;;;10.98;65.91;99675.38;4235826;33;35234;-90
2021/05/27 04:20:52;;;;;;;3.80;1.33;;;;;;;10.90;65.82;99670.94;4227337;33;35715;-90
2021/05/27 04:23:33;;;;;;;1.85;1.02;;;;;;;11.09;65.49;99674.84;4236039;33;33166;-89
2021/05/27 04:26:09;;;;;;;2.58;1.33;;;;;;;11.31;65.33;99670.28;4236310;33;33902;-89
2021/05/27 04:28:44;;;;;;;5.65;1.35;;;;;;;11.48;65.51;99666.28;4241315;33;33816;-95
2021/05/27 04:31:22;;;;;;;1.60;0.90;;;;;;;11.46;66.28;99671.03;4229342;33;34303;-90
2021/05/27 04:33:55;;;;;;;2.62;1.37;;;;;;;11.88;65.45;99671.16;4233787;33;33576;-94
2021/05/27 04:36:43;;;;;;;3.80;1.40;;;;;;;11.91;65.90;99669.94;4219739;33;33436;-94
2021/05/27 04:39:15;;;;;;;2.75;1.20;;;;;;;12.14;65.58;99675.09;4216221;33;34687;-89
2021/05/27 04:41:48;;;;;;;3.83;1.27;;;;;;;12.17;64.72;99680.97;4208783;33;34816;-94
2021/05/27 04:44:21;;;;;;;2.97;1.25;;;;;;;12.43;64.34;99674.03;4218103;33;34407;-89
2021/05/27 04:46:56;;;;;;;5.55;1.73;;;;;;;12.55;63.70;99677.00;4229778;33;32391;-94
2021/05/27 04:49:28;;;;;;;7.50;1.48;;;;;;;12.47;64.51;99671.72;4205892;33;33904;-89
2021/05/27 04:52:02;;;;;;;2.35;1.15;;;;;;;12.87;62.93;99680.03;4231004;33;33750;-94
2021/05/27 04:54:35;;;;;;;3.78;0.98;;;;;;;13.06;61.26;99668.38;4225088;33;33560;-88
2021/05/27 04:57:08;;;;;;;2.08;1.08;;;;;;;13.14;58.14;99677.38;4221573;33;34790;-89
2021/05/27 04:59:41;;;;;;;4.70;1.30;;;;;;;13.55;58.08;99677.25;4236222;33;33739;-90
2021/05/27 05:02:14;;;;;;;2.78;1.25;;;;;;;13.54;57.90;99674.75;4240157;33;33455;-89
2021/05/27 05:04:47;;;;;;;6.15;1.25;;;;;;;13.66;57.24;99674.97;4226297;33;33593;-88
2021/05/27 05:07:20;;;;;;;6.05;1.48;;;;;;;13.88;55.36;99679.13;4230186;33;34056;-94
2021/05/27 05:09:53;;;;;;;3.00;1.30;;;;;;;14.13;55.16;99683.88;4229609;33;34563;-89
2021/05/27 05:12:27;;;;;;;4.57;1.17;;;;;;;14.42;54.62;99677.12;4238584;33;33682;-90
2021/05/27 05:15:00;;;;;;;3.50;0.93;;;;;;;14.60;51.19;99676.44;4228579;33;33642;-88
2021/05/27 05:17:33;;;;;;;3.22;0.90;;;;;;;14.76;49.75;99677.00;4229918;33;34022;-89
2021/05/27 05:20:06;;;;;;;2.35;0.90;;;;;;;14.83;49.18;99678.69;4240618;33;33402;-94
2021/05/27 05:22:41;;;;;;;2.20;0.95;;;;;;;15.02;49.08;99675.22;4227867;33;34919;-94
2021/05/27 05:25:15;;;;;;;7.62;1.12;;;;;;;15.35;48.89;99675.84;4211874;33;34097;-93
2021/05/27 05:28:16;;;;;;;4.30;1.12;;;;;;;15.59;50.43;99688.87;4226281;33;33725;-95
2021/05/27 05:30:55;;;;;;;3.65;1.75;;;;;;;15.57;55.51;99686.38;4241338;33;33662;-93
2021/05/27 05:33:39;;;;;;;6.53;1.50;;;;;;;15.56;55.05;99673.81;4221946;33;34542;-96
2021/05/27 05:36:13;;;;;;;4.55;1.55;;;;;;;16.00;52.67;99676.59;4223437;33;33547;-92
2021/05/27 05:38:47;;;;;;;8.38;1.40;;;;;;;16.02;51.45;99675.31;4222235;33;34460;-96
2021/05/27 05:41:21;;;;;;;2.92;1.23;;;;;;;16.42;50.70;99674.88;4219026;33;34311;-96
2021/05/27 05:44:28;;;;;;;5.45;1.37;;;;;;;16.37;53.91;99679.34;4249903;33;35706;-93
2021/05/27 05:50:14;;;;;;;3.28;1.50;;;;;;;16.56;53.38;99680.19;4228424;33;34393;-91
2021/05/27 05:52:47;;;;;;;9.23;1.60;;;;;;;16.67;53.77;99682.13;4228979;33;33842;-91
2021/05/27 05:55:21;;;;;;;3.45;1.70;;;;;;;17.02;52.69;99683.41;4224633;33;33399;-94
2021/05/27 05:57:53;;;;;;;6.30;1.23;;;;;;;16.72;46.43;99690.50;4224994;33;34451;-92
2021/05/27 06:00:30;;;;;;;3.97;1.62;;;;;;;16.74;45.56;99692.97;4219402;33;33072;-90
2021/05/27 06:03:03;;;;;;;2.20;1.37;;;;;;;16.77;44.85;99687.87;4228738;33;33496;-89
2021/05/27 06:05:40;;;;;;;5.20;1.50;;;;;;;16.95;45.05;99691.69;4226838;33;313236;-90
2021/05/27 06:08:14;;;;;;;3.53;1.58;;;;;;;16.91;43.78;99693.22;4215108;33;36634;-94
2021/05/27 06:10:48;;;;;;;5.97;2.08;;;;;;;16.90;46.57;99694.25;4221513;33;33078;-94
2021/05/27 06:16:56;;;;;;;2.45;1.10;;;;;;;17.10;49.60;99696.75;4203760;33;36277;-89
2021/05/27 06:19:29;;;;;;;3.60;1.02;;;;;;;17.47;46.20;99691.16;4224321;33;33654;-91
2021/05/27 06:22:06;;;;;;;4.80;1.33;;;;;;;17.68;42.95;99692.50;4215644;33;34779;-89
2021/05/27 06:24:40;;;;;;;4.80;1.30;;;;;;;17.70;44.38;99692.28;4228841;33;33325;-94
2021/05/27 06:27:13;;;;;;;1.50;0.70;;;;;;;17.39;45.45;99695.03;4217907;33;34562;-94
2021/05/27 06:29:46;;;;;;;1.08;0.80;;;;;;;17.58;42.29;99689.50;4226923;33;34511;-89
2021/05/27 06:32:19;;;;;;;3.50;0.90;;;;;;;17.58;45.91;99686.78;4234211;33;33920;-90
2021/05/27 06:34:52;;;;;;;2.12;0.98;;;;;;;17.88;45.62;99680.41;4233949;33;34293;-95
2021/05/27 06:37:25;;;;;;;2.85;0.95;;;;;;;17.96;46.11;99680.91;4220376;33;34272;-88
2021/05/27 06:40:00;;;;;;;8.98;1.42;;;;;;;18.49;45.87;99678.25;4229013;33;36286;-94
2021/05/27 06:42:33;;;;;;;5.07;1.20;;;;;;;18.25;50.60;99678.28;4219140;33;33710;-90
2021/05/27 06:45:07;;;;;;;5.00;1.37;;;;;;;18.97;46.38;99677.06;4210132;33;33139;-94
2021/05/27 06:47:41;;;;;;;2.08;0.88;;;;;;;18.65;47.68;99684.84;4214103;34;33818;-96
2021/05/27 06:51:09;;;;;;;2.10;1.27;;;;;;;18.61;46.84;99676.31;4207312;33;34450;-93
2021/05/27 06:53:42;;;;;;;2.40;1.20;;;;;;;19.30;46.34;99685.59;4229225;33;35138;-93
2021/05/27 06:56:17;;;;;;;6.43;1.50;;;;;;;19.37;45.74;99686.25;4224716;33;35739;-89
2021/05/27 06:58:50;;;;;;;4.97;1.08;;;;;;;18.79;45.91;99691.72;4238368;33;33766;-89
2021/05/27 07:01:24;;;;;;;5.75;1.20;;;;;;;19.07;47.16;99687.34;4234592;33;34627;-88
2021/05/27 07:03:57;;;;;;;6.75;0.90;;;;;;;18.78;46.95;99692.78;4214895;33;35403;-94
2021/05/27 07:07:08;;;;;;;1.90;1.02;;;;;;;18.94;48.78;99693.16;4220188;33;35868;-88
2021/05/27 07:09:41;;;;;;;2.28;0.98;;;;;;;18.93;48.02;99691.47;4223404;33;33875;-90
2021/05/27 07:12:15;;;;;;;1.05;0.85;;;;;;;19.07;46.67;99684.62;4234863;33;33779;-89
2021/05/27 07:14:48;;;;;;;2.90;1.02;;;;;;;19.25;45.76;99688.25;4219585;33;35446;-89
2021/05/27 07:17:21;;;;;;;3.87;0.90;;;;;;;18.88;45.91;99693.03;4218952;33;33139;-89
2021/05/27 07:19:55;;;;;;;2.75;1.23;;;;;;;18.99;47.71;99691.31;4233914;33;34766;-89
2021/05/27 07:22:31;;;;;;;3.47;1.37;;;;;;;19.10;49.66;99681.41;4231254;33;36040;-90
2021/05/27 07:25:06;;;;;;;7.62;1.60;;;;;;;19.39;47.94;99686.88;4219975;33;34771;-90
2021/05/27 07:27:39;;;;;;;2.80;1.02;;;;;;;19.72;48.38;99677.81;4224193;33;34291;-91
2021/05/27 07:30:13;;;;;;;2.05;0.95;;;;;;;19.86;46.40;99683.00;4234866;33;35920;-91
2021/05/27 07:32:46;;;;;;;5.90;1.30;;;;;;;20.20;46.53;99672.00;4207582;33;33823;-90
2021/05/27 07:35:20;;;;;;;4.05;1.10;;;;;;;20.45;47.13;99674.25;4238046;33;33892;-91
2021/05/27 07:37:54;;;;;;;2.05;0.82;;;;;;;20.40;46.55;99676.91;4205761;33;34946;-90
2021/05/27 07:40:28;;;;;;;4.00;1.70;;;;;;;20.81;44.80;99672.00;4223115;33;33250;-90
2021/05/27 07:43:02;;;;;;;1.95;0.90;;;;;;;20.66;48.30;99674.53;4215807;33;33987;-91
2021/05/27 07:45:34;;;;;;;5.93;0.80;;;;;;;20.95;44.22;99675.97;4233653;33;33843;-90
2021/05/27 07:48:08;;;;;;;4.60;1.05;;;;;;;21.46;41.59;99669.34;4229070;33;34357;-94
2021/05/27 07:50:41;;;;;;;8.73;1.20;;;;;;;21.72;41.90;99673.16;4234324;33;34737;-94
2021/05/27 07:53:20;;;;;;;2.87;1.05;;;;;;;21.74;41.68;99668.25;4230860;33;34193;-90
2021/05/27 07:55:53;;;;;;;0.60;0.60;;;;;;;21.55;39.80;99676.06;4229022;33;35900;-96
2021/05/27 07:58:30;;;;;;;1.60;0.80;;;;;;;21.00;40.91;99675.19;4239512;33;33685;-94
2021/05/27 08:01:05;;;;;;;3.62;1.05;;;;;;;21.27;41.16;99669.72;4238350;33;34049;-92
2021/05/27 08:04:00;;;;;;;2.08;0.90;;;;;;;21.60;43.99;99673.37;4269503;28;34908;-93
2021/05/27 08:06:33;;;;;;;6.68;1.37;;;;;;;21.81;42.47;99673.50;4252747;33;31708;-93
2021/05/27 08:09:11;;;;;;;4.68;0.88;;;;;;;21.11;42.10;99667.94;4245436;33;33809;-92
2021/05/27 08:11:45;;;;;;;3.58;0.70;;;;;;;21.90;42.37;99671.09;4252098;33;33309;-93
2021/05/27 08:14:20;;;;;;;4.40;1.10;;;;;;;22.03;40.11;99665.94;4245405;33;36775;-96
2021/05/27 08:16:54;;;;;;;3.25;1.05;;;;;;;21.48;41.33;99664.41;4244683;33;32698;-94
2021/05/27 08:20:05;;;;;;;1.87;0.88;;;;;;;21.87;41.15;99661.44;4248239;33;33886;-93
2021/05/27 08:22:38;;;;;;;2.20;1.17;;;;;;;21.52;41.63;99671.06;4250230;33;33729;-94
2021/05/27 08:25:21;;;;;;;2.22;0.98;;;;;;;22.00;41.73;99669.22;4259653;33;35749;-94
2021/05/27 08:27:57;;;;;;;3.00;0.85;;;;;;;22.68;40.53;99664.94;4242742;33;33960;-93
2021/05/27 08:30:30;;;;;;;2.97;0.95;;;;;;;22.72;40.22;99668.81;4247310;33;33323;-95
2021/05/27 08:33:07;;;;;;;1.48;0.75;;;;;;;22.22;39.21;99673.78;4245100;33;33972;-93
2021/05/27 08:35:40;;;;;;;2.05;1.02;;;;;;;22.50;39.64;99674.50;4234968;33;34351;-95
2021/05/27 08:38:14;;;;;;;3.25;1.27;;;;;;;22.79;40.05;99679.59;4247231;33;33192;-93
2021/05/27 08:40:48;;;;;;;3.30;1.02;;;;;;;22.53;39.22;99668.47;4224315;33;34106;-92
2021/05/27 08:43:22;;;;;;;4.30;1.12;;;;;;;22.55;40.76;99672.59;4247113;33;33843;-92
2021/05/27 08:46:02;;;;;;;2.05;1.12;;;;;;;22.54;40.32;99675.63;4235172;33;36106;-89
2021/05/27 08:48:34;;;;;;;4.30;0.62;;;;;;;22.59;38.76;99677.56;4240859;33;33284;-91
2021/05/27 08:51:09;;;;;;;3.58;1.52;;;;;;;23.06;40.46;99680.22;4239598;33;34661;-90
2021/05/27 08:53:42;;;;;;;3.97;0.55;;;;;;;23.69;39.65;99673.72;4234869;33;33505;-91
2021/05/27 08:56:18;;;;;;;3.45;0.90;;;;;;;23.63;38.31;99670.12;4240303;33;34335;-90
2021/05/27 08:58:52;;;;;;;3.33;1.10;;;;;;;24.16;37.61;99677.25;4257091;33;34061;-90
2021/05/27 09:01:26;;;;;;;2.40;0.62;;;;;;;24.30;36.17;99672.81;4238807;33;33505;-90
2021/05/27 09:04:02;;;;;;;0.90;0.47;;;;;;;24.56;36.71;99677.44;4243371;33;33407;-90
2021/05/27 09:06:50;;;;;;;0.52;0.40;;;;;;;24.54;35.46;99671.38;4242318;33;33660;-91
2021/05/27 09:09:28;;;;;;;3.47;0.55;;;;;;;24.81;35.00;99677.34;4253033;33;32685;-92
2021/05/27 09:12:23;;;;;;;0.70;0.43;;;;;;;25.17;34.68;99668.88;4237908;33;34510;-91
2021/05/27 09:14:58;;;;;;;6.12;0.82;;;;;;;25.25;33.26;99669.38;4246617;33;33599;-92
2021/05/27 09:17:44;;;;;;;0.68;0.43;;;;;;;25.19;32.52;99672.19;4236466;33;35485;-91
2021/05/27 09:20:23;;;;;;;1.62;0.35;;;;;;;24.71;32.26;99669.12;4221950;33;34031;-91
2021/05/27 09:23:20;;;;;;;0.95;0.47;;;;;;;24.84;34.86;99664.91;4234154;33;34083;-91
2021/05/27 09:25:58;;;;;;;1.75;0.43;;;;;;;25.23;32.94;99658.59;4246991;33;33791;-87
2021/05/27 09:28:32;;;;;;;2.15;0.32;;;;;;;25.29;32.66;99659.41;4246100;33;33141;-90
2021/05/27 09:31:06;;;;;;;1.73;0.43;;;;;;;25.34;34.33;99654.66;4268884;33;33834;-92
2021/05/27 09:33:42;;;;;;;1.77;0.60;;;;;;;25.53;32.27;99659.53;4240398;33;33322;-88
2021/05/27 09:36:17;;;;;;;8.18;0.73;;;;;;;25.36;31.57;99654.41;4246968;33;33833;-91
2021/05/27 09:38:58;;;;;;;0.60;0.30;;;;;;;25.58;33.72;99651.16;4249635;33;32743;-91
2021/05/27 09:41:33;;;;;;;1.73;0.62;;;;;;;25.34;32.54;99656.63;4248786;33;33482;-92
2021/05/27 09:44:07;;;;;;;1.25;0.70;;;;;;;25.92;32.22;99649.50;4260395;33;33688;-89
2021/05/27 09:46:58;;;;;;;1.75;0.77;;;;;;;25.30;31.89;99658.28;4259479;33;33780;-91
2021/05/27 09:49:34;;;;;;;0.50;0.20;;;;;;;25.05;32.42;99664.81;4230788;33;34729;-89
2021/05/27 09:52:19;;;;;;;2.42;0.37;;;;;;;25.64;32.54;99660.25;4244821;33;33963;-91
2021/05/27 09:55:12;;;;;;;1.55;0.30;;;;;;;26.02;31.67;99652.19;4235068;33;35455;-91
2021/05/27 09:58:06;;;;;;;2.12;0.30;;;;;;;25.42;31.22;99660.69;4243902;33;37305;-95
2021/05/27 10:00:41;;;;;;;4.55;0.57;;;;;;;25.51;30.88;99654.28;4240028;33;34159;-89
2021/05/27 10:03:35;;;;;;;2.40;0.43;;;;;;;25.28;32.51;99653.03;4259055;33;33151;-92
2021/05/27 10:06:10;;;;;;;1.42;0.40;;;;;;;25.74;32.53;99657.41;4242421;33;34947;-90
2021/05/27 10:09:12;;;;;;;1.05;0.50;;;;;;;26.18;29.77;99644.53;4248205;33;34940;-90
2021/05/27 10:12:22;;;;;;;1.10;0.35;;;;;;;25.99;31.20;99641.69;4154957;33;35595;-92
2021/05/27 10:14:56;;;;;;;2.45;0.80;;;;;;;26.20;33.62;99645.91;4235021;33;34036;-89
2021/05/27 10:17:29;;;;;;;3.80;0.50;;;;;;;26.49;31.68;99653.31;4248909;33;33725;-93
2021/05/27 10:20:11;;;;;;;0.93;0.30;;;;;;;26.45;31.12;99654.22;4248276;33;34792;-92
2021/05/27 10:22:45;;;;;;;1.52;0.60;;;;;;;26.69;31.72;99651.44;4239883;33;33936;-92
2021/05/27 10:25:19;;;;;;;1.42;0.60;;;;;;;27.07;31.18;99645.94;4231206;33;35077;-92
2021/05/27 10:27:56;;;;;;;1.40;0.57;;;;;;;27.07;30.62;99649.53;4224926;33;34802;-89
2021/05/27 10:30:36;;;;;;;3.67;0.50;;;;;;;27.15;32.67;99648.03;4247333;33;33776;-92
2021/05/27 10:33:19;;;;;;;1.85;0.68;;;;;;;27.22;33.36;99651.25;4244025;33;33884;-93
2021/05/27 10:36:02;;;;;;;6.75;0.60;;;;;;;27.12;31.58;99649.44;4237996;33;34045;-90
2021/05/27 10:41:22;;;;;;;0.30;0.30;;;;;;;26.63;31.22;99642.31;4244062;33;33201;-92
2021/05/27 10:43:59;;;;;;;0.62;0.40;;;;;;;27.20;30.61;99645.19;4238807;33;33920;-94
2021/05/27 10:47:03;;;;;;;0.37;0.30;;;;;;;27.52;31.64;99635.28;4210947;33;33680;-94
2021/05/27 10:49:40;;;;;;;2.50;0.43;;;;;;;27.76;31.92;99635.13;4234654;33;36116;-90
2021/05/27 10:52:25;;;;;;;1.02;0.47;;;;;;;27.86;32.96;99645.25;4229904;33;32824;-92
2021/05/27 10:55:07;;;;;;;5.87;0.75;;;;;;;27.48;29.19;99634.22;4230120;33;35796;-96
2021/05/27 10:57:45;;;;;;;1.45;0.50;;;;;;;26.29;31.29;99631.41;4204564;34;35090;-95
2021/05/27 11:00:32;;;;;;;2.03;0.40;;;;;;;26.74;31.78;99638.34;4221994;33;32824;-95
2021/05/27 11:03:48;;;;;;;19.55;1.92;;;;;;;26.88;31.46;99623.75;4225030;33;33100;-94
2021/05/27 11:06:43;;;;;;;1.80;0.60;;;;;;;27.44;32.34;99622.06;4228386;33;35281;-94
2021/05/27 11:09:34;;;;;;;2.28;0.50;;;;;;;28.29;31.47;99625.53;4225290;33;32887;-96
2021/05/27 11:12:24;;;;;;;3.20;0.55;;;;;;;28.64;32.42;99625.97;4224906;33;34617;-96
2021/05/27 11:15:20;;;;;;;1.45;0.40;;;;;;;28.78;32.13;99627.91;4215249;33;34246;-93
2021/05/27 11:18:14;;;;;;;4.40;0.93;;;;;;;29.46;29.95;99628.00;4217088;33;34266;-94
2021/05/27 11:20:57;;;;;;;2.62;0.50;;;;;;;29.41;30.85;99628.97;4206679;34;33901;-96
2021/05/27 11:23:35;;;;;;;1.35;0.70;;;;;;;28.92;30.45;99623.12;4223605;33;33239;-95
2021/05/27 11:27:24;;;;;;;1.55;0.55;;;;;;;29.55;27.90;99620.53;4218440;33;34552;-96
2021/05/27 11:30:23;;;;;;;;;;;;;;;29.62;27.53;99620.09;4213810;34;33628;-96
2021/05/27 11:33:29;;;;;;;0.93;0.80;;;;;;;29.71;29.07;99618.19;4235118;33;33078;-94
2021/05/27 11:36:08;;;;;;;2.03;0.75;;;;;;;30.25;26.48;99618.16;4228463;33;33753;-95
2021/05/27 11:39:01;;;;;;;1.80;0.75;;;;;;;30.37;27.69;99611.97;4232839;33;33377;-95
2021/05/27 11:41:40;;;;;;;;;;;;;;;30.36;27.46;99611.16;4232460;33;33845;-90
2021/05/27 11:44:38;;;;;;;0.62;0.40;;;;;;;31.24;26.59;99605.72;4245909;33;33554;-94
2021/05/27 11:47:14;;;;;;;;;;;;;;;31.39;24.79;99612.78;4223081;33;35722;-94
2021/05/27 11:50:07;;;;;;;1.10;0.50;;;;;;;31.13;24.18;99611.63;4258118;33;34567;-93
2021/05/27 11:52:49;;;;;;;2.58;0.47;;;;;;;31.18;27.73;99618.19;4256255;33;33632;-93
2021/05/27 11:55:28;;;;;;;1.40;0.77;;;;;;;31.68;24.23;99603.72;4250835;33;33000;-93
2021/05/27 11:58:03;;;;;;;1.23;0.75;;;;;;;32.18;27.97;99610.63;4237384;33;34080;-95
2021/05/27 12:00:43;;;;;;;1.58;0.55;;;;;;;32.38;24.55;99609.03;4245625;33;34736;-96
2021/05/27 12:03:16;;;;;;;0.93;0.40;;;;;;;32.19;26.09;99607.50;4259315;33;34586;-93
2021/05/27 12:05:57;;;;;;;3.22;0.62;;;;;;;32.60;22.42;99615.50;4259085;33;33590;-96
2021/05/27 12:08:43;;;;;;;0.73;0.52;;;;;;;32.51;22.53;99605.19;4264988;33;33892;-94
2021/05/27 12:11:28;;;;;;;0.73;0.50;;;;;;;32.21;23.12;99599.59;4248869;33;34511;-94
2021/05/27 12:14:11;;;;;;;1.50;0.50;;;;;;;32.37;24.50;99599.84;4244777;33;34490;-94
2021/05/27 12:16:44;;;;;;;0.82;0.43;;;;;;;31.89;24.05;99591.81;4245888;33;33920;-96
2021/05/27 12:19:17;;;;;;;1.55;0.40;;;;;;;31.28;24.28;99589.97;4258026;33;34646;-96
2021/05/27 12:22:00;;;;;;;1.70;0.55;;;;;;;30.91;25.46;99584.69;4215526;28;34733;-96
2021/05/27 12:24:47;;;;;;;0.60;0.40;;;;;;;31.61;27.08;99590.25;4206213;33;34115;-95
2021/05/27 12:27:42;;;;;;;0.80;0.40;;;;;;;32.14;26.90;99582.53;4236759;33;34028;-93
2021/05/27 12:30:25;;;;;;;0.60;0.30;;;;;;;32.39;25.66;99586.34;4219492;33;34555;-95
2021/05/27 12:33:00;;;;;;;4.43;0.52;;;;;;;32.41;25.90;99583.19;4225256;33;34339;-94
2021/05/27 12:36:17;;;;;;;3.37;0.50;;;;;;;32.93;24.14;99579.25;4214597;33;34991;-95
2021/05/27 12:39:38;;;;;;;2.50;0.85;;;;;;;32.83;25.59;99585.25;4211050;33;35212;-93
2021/05/27 12:42:13;;;;;;;4.82;0.70;;;;;;;32.54;23.88;99582.13;4227599;33;33805;-93
2021/05/27 12:44:48;;;;;;;0.98;0.55;;;;;;;32.95;25.38;99581.69;4218724;33;33663;-94
2021/05/27 12:47:22;;;;;;;1.35;0.60;;;;;;;32.78;23.64;99580.69;4208086;33;34663;-93
2021/05/27 12:49:55;;;;;;;4.35;0.50;;;;;;;32.08;26.50;99577.44;4215164;33;33972;-94
2021/05/27 12:52:40;;;;;;;1.90;0.90;;;;;;;32.51;25.74;99580.00;4219622;33;33669;-96
2021/05/27 12:55:15;;;;;;;2.15;0.60;;;;;;;32.66;24.98;99577.81;4217565;33;34481;-92
2021/05/27 12:58:06;;;;;;;2.03;0.60;;;;;;;31.70;25.06;99576.25;4203544;33;35058;-95
2021/05/27 13:01:07;;;;;;;2.00;0.45;;;;;;;31.32;27.15;99575.00;4240865;33;33512;-94